createdAt,value
2022-10-01T00:01:26.884Z,90.70
2022-10-01T00:03:53.957Z,90.70
2022-10-01T00:06:22.354Z,90.80
2022-10-01T00:08:52.274Z,90.80
2022-10-01T00:11:22.670Z,91.00
2022-10-01T00:13:50.750Z,91.10
2022-10-01T00:16:20.604Z,91.10
2022-10-01T00:18:49.090Z,91.30
2022-10-01T00:21:19.238Z,91.30
2022-10-01T00:23:46.323Z,91.60
2022-10-01T00:26:21.060Z,91.70
2022-10-01T00:28:53.082Z,91.60
2022-10-01T00:31:20.143Z,91.70
2022-10-01T00:33:47.708Z,91.70
2022-10-01T00:36:14.941Z,91.80
2022-10-01T00:38:42.314Z,91.80
2022-10-01T00:41:10.174Z,91.90
2022-10-01T00:43:42.524Z,92.00
2022-10-01T00:46:28.800Z,92.00
2022-10-01T00:49:24.970Z,92.20
2022-10-01T00:51:57.958Z,92.20
2022-10-01T00:54:43.486Z,92.20
2022-10-01T00:57:12.644Z,92.20
2022-10-01T00:59:39.835Z,92.30
2022-10-01T01:02:06.969Z,92.20
2022-10-01T01:04:34.122Z,92.20
2022-10-01T01:07:04.533Z,92.30
2022-10-01T01:09:39.780Z,92.40
2022-10-01T01:12:21.782Z,92.40
2022-10-01T01:15:10.585Z,92.50
2022-10-01T01:18:02.772Z,92.60
2022-10-01T01:20:29.946Z,92.60
2022-10-01T01:23:15.009Z,92.60
2022-10-01T01:25:53.079Z,92.60
2022-10-01T01:28:24.367Z,92.60
2022-10-01T01:30:57.066Z,92.60
2022-10-01T01:33:26.115Z,92.70
2022-10-01T01:36:07.116Z,92.70
2022-10-01T01:38:40.509Z,92.80
2022-10-01T01:41:10.719Z,92.80
2022-10-01T01:43:43.099Z,92.80
2022-10-01T01:46:13.455Z,93.20
2022-10-01T01:48:43.306Z,93.00
2022-10-01T01:51:29.351Z,93.00
2022-10-01T01:53:56.599Z,93.00
2022-10-01T01:56:24.033Z,93.20
2022-10-01T01:58:54.030Z,93.00
2022-10-01T02:01:41.351Z,93.00
2022-10-01T02:04:33.281Z,93.10
2022-10-01T02:07:18.934Z,93.20
2022-10-01T02:10:18.986Z,93.10
2022-10-01T02:13:03.974Z,93.30
2022-10-01T02:16:04.476Z,93.20
2022-10-01T02:18:46.727Z,93.20
2022-10-01T02:21:19.727Z,93.40
2022-10-01T02:24:03.599Z,93.40
2022-10-01T02:26:32.685Z,93.50
2022-10-01T02:29:04.609Z,93.60
2022-10-01T02:31:33.316Z,93.60
2022-10-01T02:34:02.402Z,93.70
2022-10-01T02:36:33.155Z,93.60
2022-10-01T02:39:02.040Z,93.60
2022-10-01T02:41:36.067Z,93.70
2022-10-01T02:44:12.640Z,93.80
2022-10-01T02:46:46.102Z,93.80
2022-10-01T02:49:14.647Z,93.80
2022-10-01T02:51:54.458Z,93.70
2022-10-01T02:54:29.661Z,93.80
2022-10-01T02:57:18.756Z,93.80
2022-10-01T02:59:45.773Z,93.80
2022-10-01T03:02:13.055Z,93.90
2022-10-01T03:04:40.248Z,94.00
2022-10-01T03:07:07.509Z,94.00
2022-10-01T03:09:36.757Z,94.10
2022-10-01T03:12:03.910Z,94.40
2022-10-01T03:14:32.460Z,94.40
2022-10-01T03:16:59.631Z,94.40
2022-10-01T03:19:26.787Z,94.30
2022-10-01T03:21:53.986Z,94.40
2022-10-01T03:24:20.971Z,94.40
2022-10-01T03:26:47.977Z,94.40
2022-10-01T03:29:15.185Z,94.40
2022-10-01T03:31:42.361Z,94.30
2022-10-01T03:34:09.472Z,94.30
2022-10-01T03:36:36.572Z,94.30
2022-10-01T03:39:03.701Z,94.40
2022-10-01T03:41:32.261Z,94.30
2022-10-01T03:44:00.618Z,94.30
2022-10-01T03:46:27.893Z,94.40
2022-10-01T03:48:57.350Z,94.40
2022-10-01T03:51:24.461Z,94.40
2022-10-01T03:53:51.456Z,94.40
2022-10-01T03:56:18.809Z,94.40
2022-10-01T03:58:45.967Z,94.40
2022-10-01T04:01:13.089Z,94.40
2022-10-01T04:03:41.027Z,94.40
2022-10-01T04:06:08.077Z,94.50
2022-10-01T04:08:35.237Z,94.40
2022-10-01T04:11:02.309Z,94.40
2022-10-01T04:13:30.055Z,94.50
2022-10-01T04:15:57.232Z,94.50
2022-10-01T04:18:24.474Z,94.50
2022-10-01T04:20:53.627Z,94.50
2022-10-01T04:23:20.733Z,94.40
2022-10-01T04:25:47.756Z,94.50
2022-10-01T04:28:15.411Z,94.50
2022-10-01T04:30:45.079Z,94.50
2022-10-01T04:33:14.937Z,94.40
2022-10-01T04:35:43.522Z,94.50
2022-10-01T04:38:17.754Z,94.70
2022-10-01T04:40:44.922Z,94.70
2022-10-01T04:43:13.400Z,94.60
2022-10-01T04:45:40.513Z,94.60
2022-10-01T04:48:07.508Z,94.60
2022-10-01T04:50:34.670Z,94.60
2022-10-01T04:53:01.778Z,94.60
2022-10-01T04:55:30.006Z,94.60
2022-10-01T04:57:57.074Z,94.70
2022-10-01T05:00:25.960Z,94.70
2022-10-01T05:02:53.952Z,94.70
2022-10-01T05:05:24.314Z,94.70
2022-10-01T05:07:51.552Z,94.70
2022-10-01T05:10:25.778Z,94.70
2022-10-01T05:12:55.679Z,94.70
2022-10-01T05:15:22.995Z,94.80
2022-10-01T05:17:53.216Z,94.70
2022-10-01T05:20:22.748Z,94.80
2022-10-01T05:22:52.945Z,94.80
2022-10-01T05:25:20.702Z,94.80
2022-10-01T05:27:47.879Z,94.90
2022-10-01T05:30:24.276Z,94.90
2022-10-01T05:32:56.461Z,94.90
2022-10-01T05:35:23.889Z,95.00
2022-10-01T05:37:57.732Z,95.00
2022-10-01T05:40:27.465Z,95.00
2022-10-01T05:42:59.845Z,95.00
2022-10-01T05:45:32.424Z,95.00
2022-10-01T05:48:04.850Z,95.10
2022-10-01T05:50:35.131Z,95.10
2022-10-01T05:53:02.784Z,95.10
2022-10-01T05:55:34.849Z,95.10
2022-10-01T05:58:03.492Z,95.20
2022-10-01T06:00:32.043Z,95.10
2022-10-01T06:03:01.832Z,95.10
2022-10-01T06:05:30.845Z,95.10
2022-10-01T06:07:59.001Z,95.10
2022-10-01T06:10:28.273Z,95.20
2022-10-01T06:13:02.131Z,95.10
2022-10-01T06:15:30.021Z,95.10
2022-10-01T06:17:57.169Z,95.20
2022-10-01T06:20:24.215Z,95.20
2022-10-01T06:22:56.957Z,95.30
2022-10-01T06:25:25.198Z,95.30
2022-10-01T06:27:58.238Z,95.40
2022-10-01T06:30:27.614Z,95.40
2022-10-01T06:33:03.737Z,95.40
2022-10-01T06:35:35.339Z,95.40
2022-10-01T06:38:03.042Z,95.30
2022-10-01T06:40:34.141Z,95.40
2022-10-01T06:43:03.872Z,95.50
2022-10-01T06:45:32.038Z,95.50
2022-10-01T06:48:03.943Z,95.40
2022-10-01T06:50:34.744Z,95.40
2022-10-01T06:53:04.441Z,95.40
2022-10-01T06:55:33.447Z,95.40
2022-10-01T06:58:03.184Z,95.40
2022-10-01T07:00:32.809Z,95.40
2022-10-01T07:03:00.847Z,95.40
2022-10-01T07:05:30.837Z,95.40
2022-10-01T07:07:58.297Z,95.40
2022-10-01T07:10:35.766Z,95.30
2022-10-01T07:13:11.080Z,95.30
2022-10-01T07:15:38.387Z,95.30
2022-10-01T07:18:05.958Z,95.20
2022-10-01T07:20:36.057Z,95.20
2022-10-01T07:23:03.228Z,95.20
2022-10-01T07:25:30.509Z,95.10
2022-10-01T07:28:04.611Z,95.10
2022-10-01T07:30:32.834Z,95.10
2022-10-01T07:32:59.880Z,95.00
2022-10-01T07:35:29.924Z,95.20
2022-10-01T07:37:57.082Z,95.00
2022-10-01T07:40:24.170Z,95.00
2022-10-01T07:42:57.801Z,95.10
2022-10-01T07:45:25.799Z,95.00
2022-10-01T07:47:57.480Z,95.00
2022-10-01T07:50:25.817Z,95.10
2022-10-01T07:52:57.381Z,95.10
2022-10-01T07:55:27.122Z,95.20
2022-10-01T07:57:56.258Z,95.20
2022-10-01T08:00:30.049Z,95.20
2022-10-01T08:03:07.452Z,95.10
2022-10-01T08:05:37.318Z,95.00
2022-10-01T08:08:09.261Z,94.90
2022-10-01T08:10:39.913Z,95.00
2022-10-01T08:13:14.667Z,95.00
2022-10-01T08:15:48.411Z,95.00
2022-10-01T08:18:18.541Z,95.00
2022-10-01T08:20:45.792Z,95.00
2022-10-01T08:23:16.164Z,95.00
2022-10-01T08:25:48.001Z,95.00
2022-10-01T08:28:16.618Z,95.00
2022-10-01T08:30:43.852Z,94.90
2022-10-01T08:33:13.149Z,95.00
2022-10-01T08:35:43.705Z,95.00
2022-10-01T08:38:11.888Z,94.90
2022-10-01T08:40:50.847Z,94.80
2022-10-01T08:43:36.548Z,94.80
2022-10-01T08:46:13.930Z,94.80
2022-10-01T08:49:01.552Z,94.90
2022-10-01T08:51:51.672Z,94.90
2022-10-01T08:54:30.939Z,95.00
2022-10-01T08:57:01.640Z,94.80
2022-10-01T08:59:43.923Z,94.50
2022-10-01T09:02:26.162Z,94.20
2022-10-01T09:05:01.550Z,94.10
2022-10-01T09:07:57.104Z,94.20
2022-10-01T09:10:33.110Z,94.40
2022-10-01T09:13:24.611Z,94.70
2022-10-01T09:16:13.658Z,94.90
2022-10-01T09:18:55.978Z,95.00
2022-10-01T09:21:32.912Z,95.30
2022-10-01T09:24:25.163Z,95.30
2022-10-01T09:26:52.247Z,95.30
2022-10-01T09:29:32.478Z,95.30
2022-10-01T09:32:02.273Z,95.30
2022-10-01T09:34:41.294Z,95.40
2022-10-01T09:37:29.103Z,95.30
2022-10-01T09:40:15.967Z,95.40
2022-10-01T09:42:43.819Z,95.40
2022-10-01T09:45:22.581Z,95.50
2022-10-01T09:47:53.621Z,95.50
2022-10-01T09:50:43.488Z,95.60
2022-10-01T09:53:18.247Z,95.60
2022-10-01T09:55:53.031Z,95.50
2022-10-01T09:58:23.875Z,95.50
2022-10-01T10:00:52.647Z,95.30
2022-10-01T10:03:23.936Z,95.10
2022-10-01T10:05:55.144Z,95.10
2022-10-01T10:08:34.783Z,95.20
2022-10-01T10:11:03.078Z,95.30
2022-10-01T10:13:39.353Z,95.50
2022-10-01T10:16:18.863Z,95.60
2022-10-01T10:18:52.238Z,95.70
2022-10-01T10:21:25.026Z,95.80
2022-10-01T10:23:59.265Z,95.80
2022-10-01T10:26:43.521Z,95.90
2022-10-01T10:29:32.285Z,95.80
2022-10-01T10:32:04.455Z,95.70
2022-10-01T10:34:40.861Z,95.70
2022-10-01T10:37:16.119Z,95.60
2022-10-01T10:39:48.072Z,95.40
2022-10-01T10:42:16.090Z,95.20
2022-10-01T10:44:46.993Z,95.30
2022-10-01T10:47:21.631Z,94.90
2022-10-01T10:49:56.547Z,94.90
2022-10-01T10:52:35.734Z,95.00
2022-10-01T10:55:23.221Z,95.00
2022-10-01T10:57:54.392Z,95.00
2022-10-01T11:00:25.587Z,95.10
2022-10-01T11:03:00.545Z,95.10
2022-10-01T11:05:32.144Z,95.10
2022-10-01T11:08:04.432Z,95.20
2022-10-01T11:11:05.957Z,95.30
2022-10-01T11:13:59.693Z,95.20
2022-10-01T11:16:32.671Z,95.30
2022-10-01T11:19:34.303Z,95.10
2022-10-01T11:22:13.655Z,95.10
2022-10-01T11:25:21.020Z,95.00
2022-10-01T11:28:09.414Z,95.00
2022-10-01T11:30:42.075Z,94.90
2022-10-01T11:33:45.152Z,94.60
2022-10-01T11:36:21.734Z,94.40
2022-10-01T11:39:21.142Z,94.40
2022-10-01T11:42:20.071Z,94.30
2022-10-01T11:45:00.694Z,94.00
2022-10-01T11:47:43.841Z,93.50
2022-10-01T11:50:18.942Z,93.50
2022-10-01T11:53:11.232Z,92.80
2022-10-01T11:56:47.606Z,92.60
2022-10-01T11:59:37.464Z,92.60
2022-10-01T12:02:25.341Z,92.60
2022-10-01T12:05:04.159Z,92.40
2022-10-01T12:07:47.904Z,92.20
2022-10-01T12:10:31.581Z,92.00
2022-10-01T12:13:00.894Z,91.50
2022-10-01T12:15:53.885Z,91.10
2022-10-01T12:18:45.757Z,91.10
2022-10-01T12:21:39.940Z,90.70
2022-10-01T12:24:19.184Z,90.40
2022-10-01T12:27:18.778Z,90.00
2022-10-01T12:30:25.002Z,89.00
2022-10-01T12:33:30.651Z,88.20
2022-10-01T12:36:16.318Z,90.00
2022-10-01T12:38:59.975Z,91.30
2022-10-01T12:41:46.269Z,91.80
2022-10-01T12:44:50.145Z,92.00
2022-10-01T12:47:38.526Z,92.40
2022-10-01T12:50:22.153Z,92.90
2022-10-01T12:53:11.267Z,93.20
2022-10-01T12:55:52.448Z,93.70
2022-10-01T12:58:34.715Z,93.60
2022-10-01T13:01:36.369Z,93.50
2022-10-01T13:04:45.750Z,93.50
2022-10-01T13:07:37.489Z,93.40
2022-10-01T13:10:32.235Z,93.40
2022-10-01T13:13:23.087Z,93.30
2022-10-01T13:15:58.854Z,93.20
2022-10-01T13:18:49.543Z,93.10
2022-10-01T13:21:44.865Z,93.20
2022-10-01T13:24:36.454Z,93.40
2022-10-01T13:27:07.917Z,93.60
2022-10-01T13:30:02.709Z,93.80
2022-10-01T13:33:01.293Z,93.90
2022-10-01T13:35:39.562Z,94.00
2022-10-01T13:38:29.254Z,94.10
2022-10-01T13:41:16.228Z,94.20
2022-10-01T13:43:52.056Z,94.10
2022-10-01T13:46:23.798Z,93.80
2022-10-01T13:48:51.935Z,93.60
2022-10-01T13:51:20.452Z,93.20
2022-10-01T13:53:56.193Z,92.80
2022-10-01T13:56:29.121Z,92.60
2022-10-01T13:58:56.664Z,92.30
2022-10-01T14:01:24.663Z,92.00
2022-10-01T14:04:23.770Z,92.00
2022-10-01T14:06:58.254Z,91.70
2022-10-01T14:09:53.242Z,91.70
2022-10-01T14:12:57.431Z,91.40
2022-10-01T14:16:07.963Z,91.30
2022-10-01T14:18:39.994Z,91.40
2022-10-01T14:21:33.253Z,91.20
2022-10-01T14:24:26.181Z,90.40
2022-10-01T14:27:28.546Z,90.10
2022-10-01T14:30:11.864Z,90.10
2022-10-01T14:33:06.369Z,90.10
2022-10-01T14:35:33.519Z,90.10
2022-10-01T14:38:12.271Z,89.80
2022-10-01T14:40:43.792Z,89.40
2022-10-01T14:43:21.138Z,89.00
2022-10-01T14:45:52.507Z,88.80
2022-10-01T14:48:19.712Z,88.90
2022-10-01T14:50:59.600Z,89.50
2022-10-01T14:53:30.234Z,89.70
2022-10-01T14:56:05.660Z,89.50
2022-10-01T14:58:54.464Z,89.30
2022-10-01T15:01:26.044Z,88.60
2022-10-01T15:03:54.879Z,88.90
2022-10-01T15:06:24.972Z,88.70
2022-10-01T15:09:02.666Z,88.50
2022-10-01T15:11:31.712Z,88.10
2022-10-01T15:14:05.294Z,86.40
2022-10-01T15:16:35.815Z,85.30
2022-10-01T15:19:07.751Z,84.10
2022-10-01T15:21:39.803Z,84.00
2022-10-01T15:24:15.909Z,83.70
2022-10-01T15:26:43.697Z,83.50
2022-10-01T15:29:16.639Z,83.30
2022-10-01T15:31:46.727Z,83.40
2022-10-01T15:34:19.353Z,83.00
2022-10-01T15:36:48.797Z,83.30
2022-10-01T15:39:27.787Z,83.20
2022-10-01T15:41:56.780Z,83.40
2022-10-01T15:44:46.616Z,83.20
2022-10-01T15:47:34.270Z,83.20
2022-10-01T15:50:06.630Z,83.20
2022-10-01T15:52:52.081Z,82.80
2022-10-01T15:55:21.904Z,83.30
2022-10-01T15:57:53.987Z,82.80
2022-10-01T16:00:29.964Z,82.70
2022-10-01T16:02:58.167Z,82.20
2022-10-01T16:05:31.639Z,82.20
2022-10-01T16:09:44.547Z,82.20
2022-10-01T16:11:17.813Z,82.40
2022-10-01T16:16:32.060Z,83.30
2022-10-01T16:19:20.207Z,83.30
2022-10-01T16:22:20.080Z,83.60
2022-10-01T16:24:48.768Z,83.60
2022-10-01T16:27:22.566Z,83.70
2022-10-01T16:30:05.374Z,83.90
2022-10-01T16:32:33.376Z,84.40
2022-10-01T16:35:19.168Z,84.80
2022-10-01T16:37:51.934Z,85.10
2022-10-01T16:40:25.367Z,85.60
2022-10-01T16:42:53.086Z,86.00
2022-10-01T16:45:25.943Z,86.20
2022-10-01T16:47:56.854Z,86.30
2022-10-01T16:50:25.320Z,86.60
2022-10-01T16:52:53.617Z,86.90
2022-10-01T16:55:26.383Z,87.20
2022-10-01T16:57:57.515Z,87.40
2022-10-01T17:00:26.807Z,87.70
2022-10-01T17:02:55.418Z,87.90
2022-10-01T17:05:26.098Z,88.10
2022-10-01T17:07:54.269Z,88.20
2022-10-01T17:10:23.522Z,88.50
2022-10-01T17:12:51.338Z,88.60
2022-10-01T17:15:27.063Z,88.80
2022-10-01T17:17:55.903Z,88.80
2022-10-01T17:20:24.637Z,88.80
2022-10-01T17:22:52.226Z,88.90
2022-10-01T17:25:21.589Z,88.80
2022-10-01T17:27:51.428Z,88.70
2022-10-01T17:30:21.393Z,88.70
2022-10-01T17:32:48.775Z,88.80
2022-10-01T17:35:16.426Z,88.80
2022-10-01T17:37:44.155Z,88.80
2022-10-01T17:40:14.884Z,88.80
2022-10-01T17:42:45.034Z,88.80
2022-10-01T17:45:14.311Z,88.80
2022-10-01T17:47:46.064Z,89.10
2022-10-01T17:50:15.389Z,89.40
2022-10-01T17:52:43.300Z,89.70
2022-10-01T17:55:12.356Z,90.00
2022-10-01T17:57:39.682Z,90.10
2022-10-01T18:00:10.583Z,90.30
2022-10-01T18:02:42.801Z,90.40
2022-10-01T18:05:12.819Z,90.50
2022-10-01T18:07:40.535Z,90.60
2022-10-01T18:10:10.888Z,90.70
2022-10-01T18:12:42.307Z,90.90
2022-10-01T18:15:15.132Z,90.90
2022-10-01T18:17:43.704Z,91.00
2022-10-01T18:20:20.499Z,91.10
2022-10-01T18:22:48.978Z,91.30
2022-10-01T18:25:16.836Z,91.40
2022-10-01T18:27:46.251Z,91.50
2022-10-01T18:30:20.082Z,91.70
2022-10-01T18:33:10.833Z,91.70
2022-10-01T18:35:43.956Z,91.70
2022-10-01T18:38:55.368Z,91.80
2022-10-01T18:41:37.278Z,91.80
2022-10-01T18:44:10.411Z,91.80
2022-10-01T18:46:58.548Z,91.90
2022-10-01T18:49:47.996Z,92.00
2022-10-01T18:52:47.069Z,92.10
2022-10-01T18:55:57.350Z,92.20
2022-10-01T18:58:51.654Z,92.20
2022-10-01T19:01:43.210Z,92.30
2022-10-01T19:04:19.576Z,92.30
2022-10-01T19:07:03.372Z,92.40
2022-10-01T19:10:03.968Z,92.20
2022-10-01T19:12:50.426Z,92.30
2022-10-01T19:15:39.702Z,92.30
2022-10-01T19:18:36.822Z,92.30
2022-10-01T19:21:13.332Z,92.30
2022-10-01T19:24:02.301Z,92.50
2022-10-01T19:26:37.781Z,92.60
2022-10-01T19:29:31.575Z,92.50
2022-10-01T19:32:03.090Z,92.50
2022-10-01T19:34:45.014Z,92.60
2022-10-01T19:37:40.717Z,92.70
2022-10-01T19:40:30.365Z,92.70
2022-10-01T19:43:26.190Z,92.70
2022-10-01T19:46:17.714Z,92.80
2022-10-01T19:48:45.923Z,92.80
2022-10-01T19:51:18.797Z,92.80
2022-10-01T19:53:56.960Z,92.80
2022-10-01T19:56:28.930Z,92.70
2022-10-01T19:59:00.810Z,92.80
2022-10-01T20:01:42.801Z,92.80
2022-10-01T20:04:34.439Z,92.90
2022-10-01T20:07:08.708Z,92.90
2022-10-01T20:09:46.123Z,92.90
2022-10-01T20:12:21.216Z,92.90
2022-10-01T20:15:06.848Z,92.80
2022-10-01T20:17:42.827Z,92.80
2022-10-01T20:20:13.518Z,92.80
2022-10-01T20:22:59.666Z,92.80
2022-10-01T20:25:29.534Z,92.80
2022-10-01T20:28:16.791Z,92.80
2022-10-01T20:31:28.519Z,92.90
2022-10-01T20:34:25.231Z,92.90
2022-10-01T20:37:12.539Z,93.10
2022-10-01T20:39:46.044Z,93.10
2022-10-01T20:42:34.182Z,93.20
2022-10-01T20:45:02.756Z,93.30
2022-10-01T20:47:40.522Z,93.40
2022-10-01T20:50:20.154Z,93.40
2022-10-01T20:53:22.362Z,93.40
2022-10-01T20:55:57.212Z,93.50
2022-10-01T20:58:33.689Z,93.50
2022-10-01T21:01:10.118Z,93.50
2022-10-01T21:03:42.748Z,93.60
2022-10-01T21:06:12.205Z,93.60
2022-10-01T21:08:43.036Z,93.70
2022-10-01T21:11:22.456Z,93.60
2022-10-01T21:14:04.957Z,93.70
2022-10-01T21:16:36.077Z,93.60
2022-10-01T21:19:22.602Z,93.60
2022-10-01T21:22:01.613Z,93.60
2022-10-01T21:24:44.289Z,93.70
2022-10-01T21:27:26.348Z,93.60
2022-10-01T21:30:12.436Z,93.70
2022-10-01T21:32:42.134Z,93.70
2022-10-01T21:35:30.962Z,93.60
2022-10-01T21:38:39.215Z,93.60
2022-10-01T21:41:15.324Z,93.70
2022-10-01T21:44:10.123Z,93.80
2022-10-01T21:46:38.446Z,93.80
2022-10-01T21:49:27.026Z,93.90
2022-10-01T21:52:11.777Z,93.90
2022-10-01T21:54:42.081Z,94.00
2022-10-01T21:57:20.167Z,94.00
2022-10-01T21:59:50.090Z,94.10
2022-10-01T22:02:36.133Z,94.00
2022-10-01T22:05:23.400Z,94.00
2022-10-01T22:08:18.003Z,94.10
2022-10-01T22:10:48.860Z,94.10
2022-10-01T22:13:38.533Z,94.10
2022-10-01T22:16:19.504Z,93.90
2022-10-01T22:18:54.381Z,94.00
2022-10-01T22:21:35.454Z,94.10
2022-10-01T22:24:09.992Z,94.30
2022-10-01T22:26:42.698Z,94.10
2022-10-01T22:29:19.076Z,94.10
2022-10-01T22:31:49.940Z,94.10
2022-10-01T22:34:32.886Z,94.10
2022-10-01T22:37:10.278Z,94.10
2022-10-01T22:39:41.968Z,94.10
2022-10-01T22:42:30.423Z,94.20
2022-10-01T22:45:14.677Z,94.20
2022-10-01T22:47:59.123Z,94.30
2022-10-01T22:50:46.017Z,94.30
2022-10-01T22:53:28.015Z,94.20
2022-10-01T22:55:57.899Z,94.30
2022-10-01T22:58:40.063Z,94.20
2022-10-01T23:01:33.272Z,94.20
2022-10-01T23:04:12.334Z,94.20
2022-10-01T23:06:48.883Z,94.20
2022-10-01T23:09:39.513Z,94.30
2022-10-01T23:12:23.550Z,94.20
2022-10-01T23:15:19.811Z,94.10
2022-10-01T23:17:52.259Z,94.10
2022-10-01T23:20:30.013Z,94.10
2022-10-01T23:23:34.344Z,94.00
2022-10-01T23:26:21.261Z,94.00
2022-10-01T23:29:41.685Z,94.00
2022-10-01T23:32:36.636Z,94.00
2022-10-01T23:35:34.900Z,94.30
2022-10-01T23:38:35.348Z,94.30
2022-10-01T23:41:16.859Z,94.40
2022-10-01T23:43:52.429Z,94.50
2022-10-01T23:46:27.519Z,94.50
2022-10-01T23:49:20.484Z,94.60
2022-10-01T23:51:50.343Z,94.60
2022-10-01T23:54:42.191Z,94.70
2022-10-01T23:57:17.732Z,94.60
